createdAt,value
2023-03-20T00:01:59.882Z,10.20
2023-03-20T00:04:26.608Z,10.20
2023-03-20T00:06:53.307Z,10.10
2023-03-20T00:09:20.025Z,10.10
2023-03-20T00:11:55.580Z,10.10
2023-03-20T00:14:24.680Z,10.10
2023-03-20T00:16:52.040Z,10.20
2023-03-20T00:19:24.575Z,10.10
2023-03-20T00:21:52.673Z,10.10
2023-03-20T00:24:19.715Z,10.10
2023-03-20T00:26:47.982Z,10.10
2023-03-20T00:29:21.806Z,10.10
2023-03-20T00:31:49.075Z,10.20
2023-03-20T00:34:17.708Z,10.10
2023-03-20T00:36:44.393Z,10.10
2023-03-20T00:39:11.247Z,10.20
2023-03-20T00:42:02.034Z,10.20
2023-03-20T00:44:42.375Z,10.20
2023-03-20T00:47:18.903Z,10.10
2023-03-20T00:49:48.501Z,10.20
2023-03-20T00:52:17.567Z,10.10
2023-03-20T00:54:44.274Z,10.00
2023-03-20T00:57:30.549Z,10.00
2023-03-20T01:00:02.704Z,10.00
2023-03-20T01:02:31.114Z,10.00
2023-03-20T01:04:58.421Z,10.00
2023-03-20T01:07:25.187Z,10.00
2023-03-20T01:09:52.698Z,10.00
2023-03-20T01:12:19.606Z,10.10
2023-03-20T01:14:53.281Z,10.00
2023-03-20T01:17:22.812Z,10.00
2023-03-20T01:19:49.620Z,10.00
2023-03-20T01:22:18.142Z,10.00
2023-03-20T01:24:45.481Z,10.00
2023-03-20T01:27:15.454Z,10.10
2023-03-20T01:29:42.626Z,10.00
2023-03-20T01:32:19.739Z,10.00
2023-03-20T01:34:47.556Z,10.00
2023-03-20T01:37:18.659Z,10.00
2023-03-20T01:39:45.683Z,10.00
2023-03-20T01:42:15.849Z,10.10
2023-03-20T01:44:42.855Z,10.10
2023-03-20T01:47:18.498Z,10.10
2023-03-20T01:50:22.807Z,10.00
2023-03-20T01:52:53.585Z,10.10
2023-03-20T01:55:21.749Z,10.10
2023-03-20T01:57:50.639Z,10.00
2023-03-20T02:00:18.210Z,10.00
2023-03-20T02:02:47.605Z,10.00
2023-03-20T02:05:18.051Z,10.10
2023-03-20T02:07:50.421Z,10.10
2023-03-20T02:10:18.972Z,10.00
2023-03-20T02:12:47.485Z,10.10
2023-03-20T02:15:17.101Z,10.00
2023-03-20T02:17:44.336Z,10.00
2023-03-20T02:20:14.019Z,10.00
2023-03-20T02:22:58.862Z,10.10
2023-03-20T02:26:00.214Z,10.00
2023-03-20T02:28:46.035Z,10.00
2023-03-20T02:31:15.710Z,10.10
2023-03-20T02:33:56.557Z,10.00
2023-03-20T02:36:48.248Z,10.00
2023-03-20T02:39:36.424Z,10.00
2023-03-20T02:42:22.306Z,10.00
2023-03-20T02:44:58.040Z,10.00
2023-03-20T02:47:37.372Z,10.00
2023-03-20T02:50:20.883Z,10.00
2023-03-20T02:52:53.756Z,10.00
2023-03-20T02:55:35.995Z,9.90
2023-03-20T02:58:23.284Z,10.00
2023-03-20T03:01:02.551Z,10.00
2023-03-20T03:03:38.324Z,10.00
2023-03-20T03:06:17.782Z,10.00
2023-03-20T03:08:50.031Z,9.90
2023-03-20T03:11:17.582Z,10.00
2023-03-20T03:13:52.157Z,9.90
2023-03-20T03:16:24.493Z,10.00
2023-03-20T03:19:03.375Z,9.90
2023-03-20T03:21:31.134Z,9.90
2023-03-20T03:23:57.980Z,9.80
2023-03-20T03:26:28.861Z,9.90
2023-03-20T03:29:02.708Z,9.90
2023-03-20T03:31:31.200Z,9.90
2023-03-20T03:33:59.895Z,9.90
2023-03-20T03:36:39.050Z,9.90
2023-03-20T03:39:48.289Z,9.80
2023-03-20T03:42:30.888Z,9.80
2023-03-20T03:45:35.514Z,9.80
2023-03-20T03:48:08.967Z,9.80
2023-03-20T03:50:48.691Z,9.80
2023-03-20T03:53:20.640Z,9.80
2023-03-20T03:55:53.671Z,9.80
2023-03-20T03:58:28.396Z,9.70
2023-03-20T04:00:57.852Z,9.70
2023-03-20T04:03:30.918Z,9.70
2023-03-20T04:06:00.451Z,9.70
2023-03-20T04:08:27.478Z,9.80
2023-03-20T04:10:54.229Z,9.70
2023-03-20T04:13:21.043Z,9.60
2023-03-20T04:15:47.799Z,9.50
2023-03-20T04:18:16.818Z,9.60
2023-03-20T04:20:44.894Z,9.70
2023-03-20T04:23:11.626Z,9.70
2023-03-20T04:25:38.528Z,9.70
2023-03-20T04:28:06.181Z,9.70
2023-03-20T04:30:32.889Z,9.80
2023-03-20T04:32:59.857Z,9.70
2023-03-20T04:35:26.593Z,9.70
2023-03-20T04:37:53.281Z,9.50
2023-03-20T04:40:20.096Z,9.70
2023-03-20T04:42:47.045Z,9.70
2023-03-20T04:45:13.874Z,9.80
2023-03-20T04:47:41.116Z,9.70
2023-03-20T04:50:08.294Z,9.70
2023-03-20T04:52:35.170Z,9.70
2023-03-20T04:55:01.930Z,9.60
2023-03-20T04:57:28.741Z,9.70
2023-03-20T04:59:55.600Z,9.70
2023-03-20T05:02:22.425Z,9.60
2023-03-20T05:04:49.207Z,9.60
2023-03-20T05:07:16.220Z,9.60
2023-03-20T05:09:43.057Z,9.50
2023-03-20T05:12:10.498Z,9.60
2023-03-20T05:14:37.207Z,9.60
2023-03-20T05:17:04.590Z,9.60
2023-03-20T05:19:31.536Z,9.60
2023-03-20T05:21:58.197Z,9.60
2023-03-20T05:24:25.496Z,9.60
2023-03-20T05:26:52.257Z,9.60
2023-03-20T05:29:19.023Z,9.60
2023-03-20T05:31:45.897Z,9.60
2023-03-20T05:34:12.891Z,9.60
2023-03-20T05:36:39.597Z,9.60
2023-03-20T05:39:06.486Z,9.60
2023-03-20T05:41:33.457Z,9.60
2023-03-20T05:44:00.335Z,9.60
2023-03-20T05:46:27.115Z,9.60
2023-03-20T05:48:53.886Z,9.50
2023-03-20T05:51:20.757Z,9.40
2023-03-20T05:53:47.470Z,9.50
2023-03-20T05:56:14.328Z,9.50
2023-03-20T05:58:42.398Z,9.50
2023-03-20T06:01:09.153Z,9.40
2023-03-20T06:03:36.904Z,9.40
2023-03-20T06:06:04.678Z,9.40
2023-03-20T06:08:31.582Z,9.50
2023-03-20T06:10:58.297Z,9.50
2023-03-20T06:13:25.042Z,9.40
2023-03-20T06:15:51.797Z,9.30
2023-03-20T06:18:18.645Z,9.30
2023-03-20T06:20:45.516Z,9.30
2023-03-20T06:23:12.307Z,9.40
2023-03-20T06:25:38.993Z,9.40
2023-03-20T06:28:05.717Z,9.50
2023-03-20T06:30:32.440Z,9.40
2023-03-20T06:32:59.284Z,9.50
2023-03-20T06:35:30.718Z,9.50
2023-03-20T06:37:58.464Z,9.50
2023-03-20T06:40:27.369Z,9.50
2023-03-20T06:42:54.985Z,9.60
2023-03-20T06:45:22.232Z,9.60
2023-03-20T06:47:49.183Z,9.60
2023-03-20T06:50:16.179Z,9.60
2023-03-20T06:52:43.513Z,9.60
2023-03-20T06:55:10.363Z,9.60
2023-03-20T06:57:37.289Z,9.60
2023-03-20T07:00:05.546Z,9.70
2023-03-20T07:02:32.540Z,9.70
2023-03-20T07:04:59.396Z,9.60
2023-03-20T07:07:26.164Z,9.60
2023-03-20T07:09:52.830Z,9.70
2023-03-20T07:12:26.443Z,9.70
2023-03-20T07:14:53.116Z,9.70
2023-03-20T07:17:20.087Z,9.80
2023-03-20T07:19:46.980Z,9.80
2023-03-20T07:22:26.038Z,9.80
2023-03-20T07:24:53.270Z,9.90
2023-03-20T07:27:20.070Z,9.90
2023-03-20T07:29:46.916Z,10.00
2023-03-20T07:32:13.698Z,10.00
2023-03-20T07:34:40.540Z,10.00
2023-03-20T07:37:07.364Z,10.00
2023-03-20T07:39:34.265Z,10.00
2023-03-20T07:42:01.032Z,10.00
2023-03-20T07:44:28.123Z,9.90
2023-03-20T07:46:54.776Z,9.90
2023-03-20T07:49:21.521Z,9.90
2023-03-20T07:51:49.711Z,9.80
2023-03-20T07:54:17.461Z,9.80
2023-03-20T07:56:44.261Z,9.80
2023-03-20T07:59:12.045Z,9.90
2023-03-20T08:01:38.860Z,10.00
2023-03-20T08:04:05.945Z,10.10
2023-03-20T08:06:32.870Z,10.00
2023-03-20T08:08:59.791Z,10.10
2023-03-20T08:11:26.752Z,10.10
2023-03-20T08:13:53.465Z,10.20
2023-03-20T08:16:20.329Z,10.30
2023-03-20T08:18:47.183Z,10.30
2023-03-20T08:21:13.964Z,10.30
2023-03-20T08:23:40.794Z,10.30
2023-03-20T08:26:07.611Z,10.20
2023-03-20T08:28:46.974Z,10.20
2023-03-20T08:31:14.869Z,10.30
2023-03-20T08:33:41.625Z,10.30
2023-03-20T08:36:08.779Z,10.40
2023-03-20T08:38:35.949Z,10.40
2023-03-20T08:41:03.273Z,10.50
2023-03-20T08:43:29.982Z,10.40
2023-03-20T08:45:56.807Z,10.40
2023-03-20T08:48:23.588Z,10.40
2023-03-20T08:50:50.476Z,10.50
2023-03-20T08:53:17.320Z,10.50
2023-03-20T08:55:51.629Z,10.50
2023-03-20T08:58:19.447Z,10.50
2023-03-20T09:00:46.231Z,10.60
2023-03-20T09:03:18.234Z,10.70
2023-03-20T09:05:49.099Z,10.80
2023-03-20T09:08:16.500Z,10.80
2023-03-20T09:10:43.225Z,10.90
2023-03-20T09:13:25.843Z,10.90
2023-03-20T09:15:54.349Z,10.90
2023-03-20T09:18:21.901Z,10.80
2023-03-20T09:20:49.608Z,10.90
2023-03-20T09:23:16.608Z,11.00
2023-03-20T09:25:43.488Z,11.10
2023-03-20T09:28:10.283Z,11.10
2023-03-20T09:30:37.558Z,11.10
2023-03-20T09:33:04.705Z,11.20
2023-03-20T09:35:31.919Z,11.40
2023-03-20T09:37:58.719Z,11.30
2023-03-20T09:40:28.546Z,11.40
2023-03-20T09:43:22.613Z,11.40
2023-03-20T09:46:08.552Z,11.30
2023-03-20T09:48:44.177Z,11.40
2023-03-20T09:51:26.856Z,11.50
2023-03-20T09:54:21.912Z,11.70
2023-03-20T09:56:52.962Z,11.80
2023-03-20T09:59:21.137Z,11.80
2023-03-20T10:01:57.155Z,11.90
2023-03-20T10:04:27.292Z,12.10
2023-03-20T10:06:54.371Z,12.30
2023-03-20T10:09:22.441Z,12.40
2023-03-20T10:12:22.306Z,12.50
2023-03-20T10:15:03.654Z,12.60
2023-03-20T10:17:52.089Z,12.80
2023-03-20T10:20:36.957Z,12.90
2023-03-20T10:23:07.449Z,13.00
2023-03-20T10:25:43.209Z,13.10
2023-03-20T10:28:14.095Z,13.10
2023-03-20T10:30:48.172Z,13.10
2023-03-20T10:33:36.799Z,13.10
2023-03-20T10:36:12.490Z,13.10
2023-03-20T10:38:52.967Z,12.90
2023-03-20T10:41:23.236Z,12.90
2023-03-20T10:43:51.620Z,12.90
2023-03-20T10:46:29.572Z,12.90
2023-03-20T10:49:19.734Z,12.90
2023-03-20T10:52:00.169Z,12.90
2023-03-20T10:54:33.369Z,12.80
2023-03-20T10:57:03.707Z,12.80
2023-03-20T10:59:51.269Z,12.80
2023-03-20T11:02:20.631Z,12.80
2023-03-20T11:04:47.912Z,12.80
2023-03-20T11:07:32.914Z,12.80
2023-03-20T11:10:05.479Z,12.80
2023-03-20T11:12:34.760Z,12.70
2023-03-20T11:15:14.026Z,12.70
2023-03-20T11:17:41.617Z,12.70
2023-03-20T11:20:10.978Z,12.80
2023-03-20T11:22:38.646Z,12.80
2023-03-20T11:25:05.664Z,12.80
2023-03-20T11:27:34.410Z,12.80
2023-03-20T11:30:04.096Z,12.90
2023-03-20T11:32:34.043Z,13.10
2023-03-20T11:35:28.703Z,13.30
2023-03-20T11:38:07.679Z,13.50
2023-03-20T11:40:35.213Z,13.70
2023-03-20T11:43:02.237Z,13.70
2023-03-20T11:45:36.469Z,13.80
2023-03-20T11:48:24.049Z,13.90
2023-03-20T11:51:04.673Z,13.90
2023-03-20T11:53:35.825Z,14.00
2023-03-20T11:56:08.465Z,14.00
2023-03-20T11:58:39.909Z,14.00
2023-03-20T12:01:12.404Z,14.00
2023-03-20T12:04:21.028Z,13.80
2023-03-20T12:07:07.973Z,14.10
2023-03-20T12:09:49.995Z,14.30
2023-03-20T12:12:43.667Z,14.30
2023-03-20T12:15:13.467Z,14.30
2023-03-20T12:17:51.446Z,14.30
2023-03-20T12:20:39.775Z,14.10
2023-03-20T12:23:09.381Z,14.10
2023-03-20T12:25:51.575Z,13.70
2023-03-20T12:28:26.266Z,13.70
2023-03-20T12:31:03.105Z,13.70
2023-03-20T12:33:34.102Z,13.70
2023-03-20T12:36:03.833Z,13.50
2023-03-20T12:38:33.057Z,13.60
2023-03-20T12:41:16.176Z,13.60
2023-03-20T12:44:01.158Z,13.70
2023-03-20T12:46:43.151Z,13.70
2023-03-20T12:49:43.794Z,13.80
2023-03-20T12:52:25.687Z,13.70
2023-03-20T12:55:25.845Z,13.70
2023-03-20T12:58:32.764Z,13.80
2023-03-20T13:01:14.498Z,13.80
2023-03-20T13:04:03.211Z,13.90
2023-03-20T13:06:54.603Z,13.80
2023-03-20T13:09:44.855Z,13.80
2023-03-20T13:12:27.333Z,13.80
2023-03-20T13:15:31.307Z,13.90
2023-03-20T13:18:23.822Z,13.90
2023-03-20T13:20:56.632Z,13.90
2023-03-20T13:23:41.762Z,13.80
2023-03-20T13:26:26.928Z,13.90
2023-03-20T13:29:19.059Z,13.90
2023-03-20T13:31:58.627Z,13.90
2023-03-20T13:34:54.539Z,13.90
2023-03-20T13:37:35.963Z,13.80
2023-03-20T13:40:21.317Z,13.80
2023-03-20T13:42:47.929Z,13.80
2023-03-20T13:45:28.415Z,13.80
2023-03-20T13:47:58.295Z,13.80
2023-03-20T13:50:41.894Z,13.80
2023-03-20T13:53:56.627Z,13.80
2023-03-20T13:56:48.490Z,13.90
2023-03-20T13:59:38.163Z,14.00
2023-03-20T14:02:15.668Z,14.00
2023-03-20T14:04:42.785Z,14.00
2023-03-20T14:07:27.715Z,14.00
2023-03-20T14:09:56.001Z,14.00
2023-03-20T14:12:26.929Z,14.00
2023-03-20T14:14:59.213Z,14.10
2023-03-20T14:17:29.218Z,14.20
2023-03-20T14:19:57.324Z,14.00
2023-03-20T14:22:28.876Z,13.90
2023-03-20T14:25:07.513Z,13.90
2023-03-20T14:27:55.762Z,14.00
2023-03-20T14:30:44.345Z,13.90
2023-03-20T14:33:17.364Z,13.90
2023-03-20T14:35:49.258Z,13.80
2023-03-20T14:39:26.633Z,13.80
2023-03-20T14:42:14.988Z,13.70
2023-03-20T14:44:55.510Z,13.70
2023-03-20T14:47:43.501Z,13.70
2023-03-20T14:50:26.260Z,13.60
2023-03-20T14:53:01.021Z,13.60
2023-03-20T14:55:31.640Z,13.60
2023-03-20T14:58:06.599Z,13.60
2023-03-20T15:00:46.546Z,13.50
2023-03-20T15:03:17.678Z,13.50
2023-03-20T15:05:45.856Z,13.50
2023-03-20T15:08:25.769Z,13.60
2023-03-20T15:11:02.058Z,13.60
2023-03-20T15:13:31.084Z,13.60
2023-03-20T15:16:09.568Z,13.50
2023-03-20T15:18:43.111Z,13.60
2023-03-20T15:21:18.604Z,13.60
2023-03-20T15:23:46.796Z,13.60
2023-03-20T15:26:18.921Z,13.60
2023-03-20T15:28:47.133Z,13.60
2023-03-20T15:31:46.553Z,13.60
2023-03-20T15:34:20.930Z,13.60
2023-03-20T15:36:48.459Z,13.60
2023-03-20T15:39:19.450Z,13.60
2023-03-20T15:41:50.460Z,13.60
2023-03-20T15:44:35.652Z,13.60
2023-03-20T15:47:24.023Z,13.60
2023-03-20T15:49:55.345Z,13.70
2023-03-20T15:52:30.765Z,13.80
2023-03-20T15:54:59.597Z,13.80
2023-03-20T15:57:41.057Z,13.80
2023-03-20T16:00:39.785Z,13.70
2023-03-20T16:03:11.217Z,13.70
2023-03-20T16:05:37.967Z,13.80
2023-03-20T16:08:15.797Z,13.80
2023-03-20T16:10:43.420Z,13.90
2023-03-20T16:13:13.817Z,13.90
2023-03-20T16:15:40.954Z,14.00
2023-03-20T16:18:10.808Z,14.00
2023-03-20T16:20:45.112Z,14.00
2023-03-20T16:23:20.687Z,14.10
2023-03-20T16:25:47.691Z,14.10
2023-03-20T16:28:16.189Z,14.00
2023-03-20T16:30:43.047Z,14.00
2023-03-20T16:33:15.724Z,13.90
2023-03-20T16:35:49.099Z,13.90
2023-03-20T16:38:26.672Z,13.80
2023-03-20T16:40:55.636Z,13.70
2023-03-20T16:43:28.425Z,13.70
2023-03-20T16:45:57.497Z,13.60
2023-03-20T16:48:27.641Z,13.60
2023-03-20T16:51:21.093Z,13.50
2023-03-20T16:53:50.390Z,13.50
2023-03-20T16:56:42.271Z,13.50
2023-03-20T16:59:11.641Z,13.50
2023-03-20T17:01:43.187Z,13.40
2023-03-20T17:04:29.269Z,13.40
2023-03-20T17:07:01.001Z,13.40
2023-03-20T17:09:31.298Z,13.30
2023-03-20T17:12:09.991Z,13.30
2023-03-20T17:14:36.675Z,13.20
2023-03-20T17:17:03.418Z,13.20
2023-03-20T17:19:32.875Z,13.20
2023-03-20T17:22:03.645Z,13.10
2023-03-20T17:24:30.562Z,13.10
2023-03-20T17:26:57.692Z,13.10
2023-03-20T17:29:24.445Z,13.00
2023-03-20T17:31:51.235Z,13.00
2023-03-20T17:34:17.990Z,12.90
2023-03-20T17:36:44.767Z,12.90
2023-03-20T17:39:18.907Z,12.80
2023-03-20T17:41:49.204Z,12.80
2023-03-20T17:44:16.054Z,12.70
2023-03-20T17:46:56.678Z,12.60
2023-03-20T17:49:27.138Z,12.60
2023-03-20T17:51:54.943Z,12.60
2023-03-20T17:54:21.780Z,12.50
2023-03-20T17:56:48.566Z,12.40
2023-03-20T17:59:15.319Z,12.40
2023-03-20T18:01:42.745Z,12.30
2023-03-20T18:04:09.637Z,12.20
2023-03-20T18:06:36.980Z,12.20
2023-03-20T18:09:04.413Z,12.20
2023-03-20T18:11:31.314Z,12.20
2023-03-20T18:13:58.219Z,12.20
2023-03-20T18:16:27.416Z,12.10
2023-03-20T18:18:55.206Z,12.10
2023-03-20T18:21:21.963Z,12.10
2023-03-20T18:23:48.806Z,12.20
2023-03-20T18:26:22.395Z,12.10
2023-03-20T18:28:51.406Z,12.10
2023-03-20T18:31:21.470Z,12.10
2023-03-20T18:33:50.186Z,12.10
2023-03-20T18:36:19.365Z,12.10
2023-03-20T18:38:46.541Z,12.00
2023-03-20T18:41:13.845Z,12.10
2023-03-20T18:43:41.011Z,12.10
2023-03-20T18:46:15.783Z,12.00
2023-03-20T18:48:43.446Z,12.00
2023-03-20T18:51:11.041Z,11.90
2023-03-20T18:53:38.151Z,11.90
2023-03-20T18:56:06.973Z,11.80
2023-03-20T18:58:33.730Z,11.90
2023-03-20T19:01:00.605Z,11.90
2023-03-20T19:03:28.581Z,11.90
2023-03-20T19:05:57.891Z,11.90
2023-03-20T19:08:25.011Z,11.80
2023-03-20T19:10:51.720Z,11.90
2023-03-20T19:13:20.475Z,11.80
2023-03-20T19:15:47.626Z,11.80
2023-03-20T19:18:26.186Z,11.80
2023-03-20T19:20:57.920Z,11.80
2023-03-20T19:23:26.097Z,11.80
2023-03-20T19:25:54.448Z,11.80
2023-03-20T19:28:39.111Z,11.80
2023-03-20T19:31:07.120Z,11.70
2023-03-20T19:33:34.416Z,11.60
2023-03-20T19:36:03.925Z,11.50
2023-03-20T19:38:31.898Z,11.40
2023-03-20T19:40:59.997Z,11.50
2023-03-20T19:43:29.009Z,11.30
2023-03-20T19:45:58.734Z,11.10
2023-03-20T19:48:43.380Z,11.10
2023-03-20T19:51:17.135Z,11.10
2023-03-20T19:53:44.735Z,11.10
2023-03-20T19:56:15.018Z,11.10
2023-03-20T19:58:41.982Z,11.20
2023-03-20T20:01:15.692Z,11.10
2023-03-20T20:03:44.075Z,11.10
2023-03-20T20:06:10.838Z,11.10
2023-03-20T20:08:49.084Z,11.10
2023-03-20T20:11:17.436Z,11.10
2023-03-20T20:16:32.792Z,11.10
2023-03-20T20:18:59.591Z,11.10
2023-03-20T20:24:15.199Z,11.10
2023-03-20T20:26:53.222Z,11.10
2023-03-20T20:29:21.384Z,11.00
2023-03-20T20:31:48.238Z,10.90
2023-03-20T20:35:14.911Z,10.80
2023-03-20T20:37:47.463Z,10.70
2023-03-20T20:39:49.112Z,10.70
2023-03-20T20:42:17.114Z,10.60
2023-03-20T20:44:44.648Z,10.60
2023-03-20T20:47:11.522Z,10.60
2023-03-20T20:49:38.356Z,10.60
2023-03-20T20:52:05.558Z,10.60
2023-03-20T20:54:34.038Z,10.80
2023-03-20T20:57:01.606Z,10.90
2023-03-20T20:59:29.066Z,10.80
2023-03-20T21:01:56.465Z,10.60
2023-03-20T21:04:23.586Z,10.60
2023-03-20T21:07:08.722Z,10.50
2023-03-20T21:09:36.622Z,10.60
2023-03-20T21:12:04.497Z,10.70
2023-03-20T21:14:31.675Z,10.80
2023-03-20T21:17:01.250Z,10.70
2023-03-20T21:19:35.537Z,10.50
2023-03-20T21:22:02.447Z,10.50
2023-03-20T21:24:33.808Z,10.50
2023-03-20T21:27:13.808Z,10.40
2023-03-20T21:29:42.022Z,10.40
2023-03-20T21:32:10.962Z,10.30
2023-03-20T21:34:40.278Z,10.20
2023-03-20T21:38:08.650Z,10.20
2023-03-20T21:39:56.923Z,10.20
2023-03-20T21:42:23.675Z,10.10
2023-03-20T21:48:23.621Z,10.00
2023-03-20T21:50:52.650Z,9.80
2023-03-20T21:54:17.579Z,9.70
2023-03-20T21:56:40.202Z,9.60
2023-03-20T21:59:36.771Z,9.50
2023-03-20T22:02:08.375Z,9.50
2023-03-20T22:16:04.705Z,9.40
2023-03-20T22:21:48.451Z,9.40
2023-03-20T22:24:39.308Z,9.40
2023-03-20T22:27:26.978Z,9.40
2023-03-20T22:30:11.930Z,9.50
2023-03-20T22:44:25.931Z,9.50
2023-03-20T22:46:39.974Z,9.20
2023-03-20T22:48:59.236Z,8.90
2023-03-20T22:51:34.338Z,8.80
2023-03-20T22:54:02.692Z,8.80
2023-03-20T22:56:29.490Z,8.80
2023-03-20T22:58:56.283Z,8.90
2023-03-20T23:01:23.123Z,9.10
2023-03-20T23:03:49.892Z,9.00
2023-03-20T23:06:23.557Z,9.10
2023-03-20T23:08:55.497Z,9.20
2023-03-20T23:11:25.919Z,9.00
2023-03-20T23:13:53.512Z,8.90
2023-03-20T23:16:20.958Z,8.80
2023-03-20T23:18:47.882Z,8.70
2023-03-20T23:21:14.690Z,8.60
2023-03-20T23:23:41.398Z,8.50
2023-03-20T23:26:09.593Z,8.40
2023-03-20T23:28:38.240Z,8.50
2023-03-20T23:31:15.247Z,8.60
2023-03-20T23:33:44.342Z,8.80
2023-03-20T23:36:24.746Z,8.80
2023-03-20T23:38:58.258Z,8.70
2023-03-20T23:41:49.354Z,8.60
2023-03-20T23:44:11.701Z,8.50
2023-03-20T23:46:38.424Z,8.50
2023-03-20T23:49:06.329Z,8.50
2023-03-20T23:51:33.160Z,8.60
2023-03-20T23:53:59.870Z,8.70
2023-03-20T23:56:26.617Z,8.80
2023-03-20T23:58:59.542Z,8.80
